createdAt,value
2023-05-20T00:00:55.666Z,8.88
2023-05-20T00:03:23.572Z,9.25
2023-05-20T00:05:51.903Z,9.40
2023-05-20T00:08:19.997Z,9.02
2023-05-20T00:10:47.908Z,10.15
2023-05-20T00:13:15.446Z,9.20
2023-05-20T00:15:44.141Z,8.68
2023-05-20T00:18:12.548Z,9.63
2023-05-20T00:20:40.003Z,8.60
2023-05-20T00:23:07.410Z,9.25
2023-05-20T00:25:35.130Z,8.68
2023-05-20T00:28:02.925Z,8.68
2023-05-20T00:30:30.324Z,8.73
2023-05-20T00:32:57.782Z,9.02
2023-05-20T00:35:25.165Z,8.98
2023-05-20T00:37:52.552Z,9.52
2023-05-20T00:40:21.104Z,9.20
2023-05-20T00:42:48.413Z,8.20
2023-05-20T00:45:16.039Z,8.02
2023-05-20T00:47:43.830Z,8.77
2023-05-20T00:50:11.971Z,9.45
2023-05-20T00:52:41.743Z,8.70
2023-05-20T00:55:09.347Z,9.15
2023-05-20T00:57:36.881Z,9.60
2023-05-20T01:00:08.385Z,9.60
2023-05-20T01:02:35.755Z,10.05
2023-05-20T01:05:04.033Z,10.00
2023-05-20T01:07:32.798Z,8.98
2023-05-20T01:10:01.201Z,9.55
2023-05-20T01:12:41.765Z,9.52
2023-05-20T01:15:11.569Z,9.02
2023-05-20T01:17:45.262Z,9.10
2023-05-20T01:20:14.848Z,9.27
2023-05-20T01:22:54.578Z,8.60
2023-05-20T01:25:22.630Z,10.00
2023-05-20T01:27:52.905Z,9.57
2023-05-20T01:30:22.320Z,9.50
2023-05-20T01:33:00.415Z,10.60
2023-05-20T01:35:31.296Z,10.63
2023-05-20T01:38:00.459Z,10.18
2023-05-20T01:40:28.542Z,10.48
2023-05-20T01:42:59.474Z,10.00
2023-05-20T01:45:27.615Z,10.25
2023-05-20T01:47:56.384Z,10.68
2023-05-20T01:50:23.674Z,10.15
2023-05-20T01:52:51.513Z,10.35
2023-05-20T01:55:19.008Z,10.43
2023-05-20T01:57:47.617Z,10.73
2023-05-20T02:00:15.753Z,10.27
2023-05-20T02:02:45.596Z,10.65
2023-05-20T02:05:13.966Z,10.73
2023-05-20T02:07:45.470Z,10.63
2023-05-20T02:10:13.985Z,11.77
2023-05-20T02:12:41.891Z,12.15
2023-05-20T02:15:10.430Z,11.05
2023-05-20T02:17:38.473Z,11.10
2023-05-20T02:20:07.936Z,11.52
2023-05-20T02:22:35.508Z,10.15
2023-05-20T02:25:04.295Z,9.70
2023-05-20T02:27:33.107Z,10.35
2023-05-20T02:30:01.620Z,11.18
2023-05-20T02:32:30.978Z,10.73
2023-05-20T02:35:01.840Z,10.32
2023-05-20T02:37:29.120Z,10.40
2023-05-20T02:39:56.782Z,9.18
2023-05-20T02:42:24.101Z,10.05
2023-05-20T02:44:53.568Z,9.80
2023-05-20T02:47:21.573Z,11.27
2023-05-20T02:49:49.078Z,11.07
2023-05-20T02:52:16.852Z,10.27
2023-05-20T02:54:44.189Z,10.98
2023-05-20T02:57:12.081Z,11.15
2023-05-20T02:59:39.910Z,11.23
2023-05-20T03:02:08.071Z,9.63
2023-05-20T03:04:39.514Z,12.52
2023-05-20T03:07:07.920Z,11.48
2023-05-20T03:09:35.418Z,12.20
2023-05-20T03:12:04.523Z,11.25
2023-05-20T03:14:32.091Z,12.07
2023-05-20T03:17:00.563Z,11.25
2023-05-20T03:19:31.549Z,11.15
2023-05-20T03:22:01.620Z,11.35
2023-05-20T03:24:30.721Z,11.10
2023-05-20T03:27:00.267Z,12.73
2023-05-20T03:29:30.314Z,12.88
2023-05-20T03:31:59.298Z,13.63
2023-05-20T03:34:29.987Z,13.02
2023-05-20T03:37:01.286Z,13.25
2023-05-20T03:39:30.919Z,14.10
2023-05-20T03:42:01.996Z,10.80
2023-05-20T03:44:30.432Z,10.68
2023-05-20T03:46:58.750Z,10.18
2023-05-20T03:49:27.527Z,10.35
2023-05-20T03:51:55.847Z,11.30
2023-05-20T03:54:24.231Z,11.43
2023-05-20T03:57:12.532Z,11.52
2023-05-20T03:59:41.283Z,10.90
2023-05-20T04:02:10.717Z,10.95
2023-05-20T04:04:39.513Z,9.32
2023-05-20T04:07:08.674Z,9.65
2023-05-20T04:09:40.794Z,9.20
2023-05-20T04:12:09.405Z,8.88
2023-05-20T04:14:39.616Z,8.93
2023-05-20T04:17:09.365Z,8.30
2023-05-20T04:19:39.012Z,8.70
2023-05-20T04:22:07.761Z,7.53
2023-05-20T04:24:36.498Z,7.88
2023-05-20T04:27:10.267Z,8.00
2023-05-20T04:29:38.998Z,7.10
2023-05-20T04:32:11.409Z,6.80
2023-05-20T04:34:40.022Z,7.35
2023-05-20T04:37:10.445Z,6.90
2023-05-20T04:39:39.868Z,7.15
2023-05-20T04:42:10.742Z,7.53
2023-05-20T04:44:39.199Z,6.53
2023-05-20T04:47:09.406Z,7.10
2023-05-20T04:49:40.292Z,7.30
2023-05-20T04:52:09.525Z,6.63
2023-05-20T04:54:40.937Z,6.60
2023-05-20T04:57:10.790Z,6.18
2023-05-20T04:59:38.338Z,6.22
2023-05-20T05:02:07.319Z,5.88
2023-05-20T05:04:37.275Z,6.60
2023-05-20T05:07:09.171Z,6.53
2023-05-20T05:09:37.768Z,6.28
2023-05-20T05:12:06.624Z,6.45
2023-05-20T05:14:36.095Z,6.93
2023-05-20T05:17:04.056Z,7.43
2023-05-20T05:19:32.162Z,7.20
2023-05-20T05:22:00.636Z,7.10
2023-05-20T05:24:30.683Z,7.32
2023-05-20T05:27:01.168Z,7.10
2023-05-20T05:29:29.546Z,7.50
2023-05-20T05:31:59.053Z,7.25
2023-05-20T05:34:27.970Z,7.22
2023-05-20T05:36:57.445Z,7.47
2023-05-20T05:39:26.413Z,7.32
2023-05-20T05:41:55.365Z,7.40
2023-05-20T05:44:24.096Z,6.65
2023-05-20T05:46:52.465Z,6.95
2023-05-20T05:49:21.405Z,8.38
2023-05-20T05:51:51.151Z,6.60
2023-05-20T05:54:21.562Z,6.50
2023-05-20T05:56:54.273Z,5.05
2023-05-20T05:59:25.604Z,4.85
2023-05-20T06:01:57.743Z,4.75
2023-05-20T06:04:26.764Z,5.63
2023-05-20T06:06:59.102Z,5.13
2023-05-20T06:09:28.908Z,5.00
2023-05-20T06:11:58.121Z,3.97
2023-05-20T06:14:27.756Z,4.38
2023-05-20T06:16:56.894Z,10.52
2023-05-20T06:19:26.061Z,4.90
2023-05-20T06:21:54.542Z,4.65
2023-05-20T06:24:25.059Z,4.80
2023-05-20T06:26:53.583Z,4.50
2023-05-20T06:29:21.003Z,3.50
2023-05-20T06:31:49.054Z,4.30
2023-05-20T06:34:17.612Z,4.15
2023-05-20T06:36:45.020Z,3.90
2023-05-20T06:39:12.917Z,3.40
2023-05-20T06:41:44.785Z,3.85
2023-05-20T06:44:20.906Z,4.20
2023-05-20T06:46:56.396Z,4.18
2023-05-20T06:49:25.690Z,3.88
2023-05-20T06:51:56.278Z,4.05
2023-05-20T06:54:24.923Z,4.03
2023-05-20T06:56:53.672Z,3.92
2023-05-20T06:59:22.140Z,3.70
2023-05-20T07:01:50.554Z,3.85
2023-05-20T07:04:19.840Z,3.90
2023-05-20T07:06:49.196Z,4.30
2023-05-20T07:09:17.638Z,3.28
2023-05-20T07:11:47.944Z,3.60
2023-05-20T07:14:17.085Z,3.85
2023-05-20T07:16:45.803Z,3.35
2023-05-20T07:19:15.626Z,3.58
2023-05-20T07:21:43.633Z,3.53
2023-05-20T07:24:32.350Z,4.05
2023-05-20T07:27:00.870Z,3.95
2023-05-20T07:29:29.949Z,3.65
2023-05-20T07:31:58.918Z,4.00
2023-05-20T07:34:28.358Z,4.07
2023-05-20T07:36:57.767Z,3.72
2023-05-20T07:39:26.025Z,4.20
2023-05-20T07:41:55.163Z,4.22
2023-05-20T07:44:25.628Z,3.90
2023-05-20T07:46:56.193Z,4.18
2023-05-20T07:49:23.864Z,4.50
2023-05-20T07:51:52.673Z,4.07
2023-05-20T07:54:20.741Z,4.30
2023-05-20T07:56:51.608Z,4.10
2023-05-20T07:59:19.387Z,4.40
2023-05-20T08:01:49.273Z,4.40
2023-05-20T08:04:20.388Z,4.75
2023-05-20T08:06:47.750Z,4.75
2023-05-20T08:09:22.710Z,4.90
2023-05-20T08:11:55.173Z,5.13
2023-05-20T08:14:22.280Z,5.50
2023-05-20T08:16:54.864Z,5.13
2023-05-20T08:19:25.633Z,5.15
2023-05-20T08:21:53.608Z,4.80
2023-05-20T08:24:21.161Z,5.00
2023-05-20T08:26:49.063Z,4.68
2023-05-20T08:29:18.048Z,5.25
2023-05-20T08:31:45.624Z,4.78
2023-05-20T08:34:13.930Z,5.00
2023-05-20T08:36:42.408Z,5.22
2023-05-20T08:39:10.199Z,5.38
2023-05-20T08:41:39.830Z,6.15
2023-05-20T08:44:11.886Z,5.50
2023-05-20T08:46:42.229Z,5.87
2023-05-20T08:49:10.263Z,5.85
2023-05-20T08:51:38.798Z,6.55
2023-05-20T08:54:08.363Z,6.10
2023-05-20T08:56:36.968Z,6.18
2023-05-20T08:59:04.301Z,6.57
2023-05-20T09:01:31.568Z,6.50
2023-05-20T09:04:00.168Z,5.78
2023-05-20T09:06:27.335Z,5.85
2023-05-20T09:08:54.582Z,6.28
2023-05-20T09:11:23.354Z,6.05
2023-05-20T09:13:51.318Z,6.15
2023-05-20T09:16:18.759Z,7.65
2023-05-20T09:18:47.445Z,5.90
2023-05-20T09:21:15.128Z,23.65
2023-05-20T09:23:48.504Z,6.60
2023-05-20T09:26:20.127Z,7.15
2023-05-20T09:28:48.583Z,6.15
2023-05-20T09:31:16.100Z,6.28
2023-05-20T09:33:43.866Z,7.63
2023-05-20T09:36:12.414Z,7.00
2023-05-20T09:38:40.740Z,6.13
2023-05-20T09:41:11.536Z,6.40
2023-05-20T09:43:41.083Z,6.40
2023-05-20T09:46:09.506Z,6.90
2023-05-20T09:48:38.089Z,6.72
2023-05-20T09:51:06.959Z,6.78
2023-05-20T09:53:34.283Z,6.85
2023-05-20T09:56:01.711Z,6.45
2023-05-20T09:58:30.510Z,7.38
2023-05-20T10:00:58.200Z,7.13
2023-05-20T10:03:28.806Z,6.03
2023-05-20T10:06:22.372Z,6.60
2023-05-20T10:09:05.864Z,6.22
2023-05-20T10:11:44.492Z,6.82
2023-05-20T10:14:41.888Z,6.45
2023-05-20T10:17:16.647Z,6.38
2023-05-20T10:19:45.430Z,6.25
2023-05-20T10:22:14.079Z,6.50
2023-05-20T10:24:43.649Z,6.28
2023-05-20T10:27:15.558Z,6.38
2023-05-20T10:29:58.446Z,6.00
2023-05-20T10:32:28.868Z,6.78
2023-05-20T10:35:06.118Z,6.90
2023-05-20T10:37:40.464Z,6.35
2023-05-20T10:40:11.712Z,6.43
2023-05-20T10:42:39.716Z,6.75
2023-05-20T10:45:08.307Z,6.85
2023-05-20T10:47:37.028Z,6.57
2023-05-20T10:50:06.427Z,6.68
2023-05-20T10:52:37.558Z,7.00
2023-05-20T10:55:06.030Z,6.93
2023-05-20T10:57:34.991Z,6.75
2023-05-20T11:00:11.038Z,6.63
2023-05-20T11:02:38.745Z,7.28
2023-05-20T11:05:06.810Z,6.75
2023-05-20T11:07:34.319Z,6.95
2023-05-20T11:10:01.799Z,6.03
2023-05-20T11:12:29.122Z,7.25
2023-05-20T11:14:56.825Z,6.88
2023-05-20T11:17:24.009Z,6.93
2023-05-20T11:19:51.566Z,6.93
2023-05-20T11:22:19.638Z,7.38
2023-05-20T11:24:48.346Z,7.43
2023-05-20T11:27:16.158Z,7.63
2023-05-20T11:29:43.779Z,7.05
2023-05-20T11:32:11.093Z,7.50
2023-05-20T11:34:39.548Z,7.43
2023-05-20T11:37:09.712Z,6.78
2023-05-20T11:39:38.222Z,7.07
2023-05-20T11:42:06.490Z,6.32
2023-05-20T11:44:34.133Z,7.43
2023-05-20T11:47:03.455Z,6.80
2023-05-20T11:49:31.324Z,7.45
2023-05-20T11:51:58.908Z,7.35
2023-05-20T11:54:26.423Z,6.93
2023-05-20T11:56:55.042Z,7.10
2023-05-20T11:59:24.644Z,7.05
2023-05-20T12:01:51.876Z,7.07
2023-05-20T12:04:19.234Z,6.60
2023-05-20T12:06:47.254Z,7.00
2023-05-20T12:09:14.647Z,7.05
2023-05-20T12:11:42.513Z,7.35
2023-05-20T12:14:12.003Z,6.60
2023-05-20T12:16:40.629Z,7.20
2023-05-20T12:19:09.476Z,7.28
2023-05-20T12:21:36.911Z,7.32
2023-05-20T12:24:07.435Z,7.65
2023-05-20T12:26:36.664Z,6.68
2023-05-20T12:29:03.915Z,7.32
2023-05-20T12:31:33.098Z,7.03
2023-05-20T12:34:02.318Z,7.53
2023-05-20T12:36:29.571Z,6.85
2023-05-20T12:38:57.747Z,7.32
2023-05-20T12:41:26.863Z,7.68
2023-05-20T12:43:54.589Z,7.22
2023-05-20T12:46:21.983Z,6.97
2023-05-20T12:48:49.929Z,7.88
2023-05-20T12:51:19.711Z,7.60
2023-05-20T12:53:47.853Z,7.65
2023-05-20T12:56:15.847Z,7.78
2023-05-20T12:58:44.875Z,6.93
2023-05-20T13:01:12.569Z,7.57
2023-05-20T13:03:40.077Z,7.97
2023-05-20T13:06:07.536Z,7.30
2023-05-20T13:08:34.725Z,7.40
2023-05-20T13:11:01.993Z,7.80
2023-05-20T13:13:29.145Z,7.38
2023-05-20T13:15:57.082Z,8.13
2023-05-20T13:18:24.260Z,7.05
2023-05-20T13:20:51.609Z,7.80
2023-05-20T13:23:18.809Z,6.95
2023-05-20T13:25:46.045Z,8.07
2023-05-20T13:28:16.882Z,7.25
2023-05-20T13:30:44.192Z,7.10
2023-05-20T13:33:11.798Z,7.95
2023-05-20T13:35:38.907Z,7.13
2023-05-20T13:38:06.109Z,6.93
2023-05-20T13:40:33.498Z,6.90
2023-05-20T13:43:00.932Z,7.18
2023-05-20T13:45:29.695Z,7.93
2023-05-20T13:47:57.205Z,7.80
2023-05-20T13:50:24.499Z,7.07
2023-05-20T13:52:51.923Z,7.60
2023-05-20T13:55:19.047Z,6.93
2023-05-20T13:57:46.404Z,7.50
2023-05-20T14:00:14.234Z,8.20
2023-05-20T14:02:41.686Z,7.25
2023-05-20T14:05:09.194Z,7.68
2023-05-20T14:07:36.413Z,7.47
2023-05-20T14:10:03.765Z,7.32
2023-05-20T14:12:31.050Z,7.03
2023-05-20T14:14:58.392Z,7.55
2023-05-20T14:17:26.193Z,7.03
2023-05-20T14:19:53.417Z,7.43
2023-05-20T14:22:20.574Z,8.00
2023-05-20T14:24:47.830Z,7.50
2023-05-20T14:27:15.300Z,7.90
2023-05-20T14:29:42.570Z,7.93
2023-05-20T14:32:11.704Z,8.07
2023-05-20T14:34:39.070Z,7.32
2023-05-20T14:37:10.115Z,8.23
2023-05-20T14:39:37.454Z,7.60
2023-05-20T14:42:05.227Z,8.18
2023-05-20T14:44:32.641Z,7.03
2023-05-20T14:47:00.086Z,7.45
2023-05-20T14:49:27.374Z,7.75
2023-05-20T14:51:54.592Z,8.60
2023-05-20T14:54:25.200Z,8.20
2023-05-20T14:56:52.609Z,8.07
2023-05-20T14:59:19.880Z,8.23
2023-05-20T15:01:47.086Z,7.65
2023-05-20T15:04:15.249Z,7.45
2023-05-20T15:06:44.722Z,7.90
2023-05-20T15:09:13.175Z,7.97
2023-05-20T15:11:42.043Z,8.13
2023-05-20T15:14:09.648Z,7.75
2023-05-20T15:16:37.190Z,7.53
2023-05-20T15:19:05.635Z,8.27
2023-05-20T15:21:34.723Z,7.88
2023-05-20T15:24:03.357Z,8.90
2023-05-20T15:26:31.255Z,8.75
2023-05-20T15:28:59.809Z,8.77
2023-05-20T15:31:27.351Z,10.80
2023-05-20T15:33:56.087Z,12.80
2023-05-20T15:36:24.436Z,12.25
2023-05-20T15:38:52.649Z,10.07
2023-05-20T15:41:21.874Z,11.00
2023-05-20T15:43:49.408Z,13.55
2023-05-20T15:46:17.944Z,12.77
2023-05-20T15:48:45.203Z,14.38
2023-05-20T15:51:12.767Z,12.48
2023-05-20T15:53:40.854Z,14.18
2023-05-20T15:56:09.019Z,12.60
2023-05-20T15:58:36.441Z,13.93
2023-05-20T16:01:04.280Z,8.88
2023-05-20T16:03:32.241Z,9.82
2023-05-20T16:05:59.617Z,9.65
2023-05-20T16:08:29.528Z,8.68
2023-05-20T16:10:57.078Z,9.18
2023-05-20T16:13:24.513Z,7.43
2023-05-20T16:15:52.368Z,8.27
2023-05-20T16:18:19.776Z,7.13
2023-05-20T16:20:46.991Z,7.25
2023-05-20T16:23:14.487Z,7.60
2023-05-20T16:25:42.186Z,7.20
2023-05-20T16:28:09.642Z,7.50
2023-05-20T16:30:37.059Z,7.38
2023-05-20T16:33:04.734Z,6.57
2023-05-20T16:35:32.183Z,7.18
2023-05-20T16:38:00.363Z,7.45
2023-05-20T16:40:27.909Z,7.88
2023-05-20T16:42:57.215Z,6.63
2023-05-20T16:45:26.005Z,6.93
2023-05-20T16:47:54.310Z,7.38
2023-05-20T16:50:22.964Z,8.05
2023-05-20T16:52:50.916Z,8.07
2023-05-20T16:55:18.518Z,7.47
2023-05-20T16:57:47.587Z,7.47
2023-05-20T17:00:15.183Z,6.97
2023-05-20T17:02:42.717Z,7.90
2023-05-20T17:05:10.140Z,7.60
2023-05-20T17:07:38.546Z,7.90
2023-05-20T17:10:06.273Z,7.22
2023-05-20T17:12:33.549Z,7.30
2023-05-20T17:15:00.866Z,7.43
2023-05-20T17:17:29.605Z,8.43
2023-05-20T17:19:57.257Z,8.15
2023-05-20T17:22:25.937Z,7.65
2023-05-20T17:24:54.710Z,7.82
2023-05-20T17:27:24.034Z,8.15
2023-05-20T17:29:52.519Z,8.60
2023-05-20T17:32:20.250Z,7.53
2023-05-20T17:34:47.674Z,7.88
2023-05-20T17:37:15.315Z,8.48
2023-05-20T17:39:43.560Z,8.30
2023-05-20T17:42:10.963Z,8.85
2023-05-20T17:44:38.271Z,9.60
2023-05-20T17:47:05.532Z,10.00
2023-05-20T17:49:33.012Z,9.20
2023-05-20T17:52:00.354Z,9.98
2023-05-20T17:54:28.083Z,9.35
2023-05-20T17:56:56.732Z,11.55
2023-05-20T17:59:24.861Z,10.18
2023-05-20T18:01:53.159Z,9.15
2023-05-20T18:04:21.443Z,9.25
2023-05-20T18:06:48.761Z,8.95
2023-05-20T18:09:16.668Z,9.48
2023-05-20T18:11:44.933Z,9.98
2023-05-20T18:14:13.956Z,10.55
2023-05-20T18:16:43.410Z,11.40
2023-05-20T18:19:11.109Z,10.50
2023-05-20T18:21:39.166Z,10.02
2023-05-20T18:24:07.218Z,10.73
2023-05-20T18:26:35.434Z,10.13
2023-05-20T18:29:04.346Z,9.90
2023-05-20T18:31:32.495Z,9.98
2023-05-20T18:34:02.696Z,10.63
2023-05-20T18:36:31.998Z,11.40
2023-05-20T18:39:00.397Z,14.20
2023-05-20T18:41:39.560Z,11.13
2023-05-20T18:44:15.290Z,11.18
2023-05-20T18:46:44.054Z,12.18
2023-05-20T18:49:11.699Z,12.52
2023-05-20T18:51:40.076Z,11.57
2023-05-20T18:54:07.496Z,10.98
2023-05-20T18:56:36.264Z,10.55
2023-05-20T18:59:03.661Z,12.15
2023-05-20T19:01:31.383Z,14.20
2023-05-20T19:03:58.711Z,13.48
2023-05-20T19:06:26.071Z,12.65
2023-05-20T19:08:53.696Z,12.38
2023-05-20T19:11:21.836Z,11.73
2023-05-20T19:13:49.391Z,11.80
2023-05-20T19:16:17.018Z,12.95
2023-05-20T19:18:44.821Z,12.73
2023-05-20T19:21:12.095Z,12.55
2023-05-20T19:23:39.669Z,12.60
2023-05-20T19:26:07.590Z,11.52
2023-05-20T19:28:35.116Z,12.13
2023-05-20T19:31:02.772Z,12.15
2023-05-20T19:33:30.039Z,11.40
2023-05-20T19:35:57.998Z,10.93
2023-05-20T19:38:25.754Z,12.07
2023-05-20T19:40:53.555Z,11.23
2023-05-20T19:43:21.934Z,11.00
2023-05-20T19:45:49.280Z,10.82
2023-05-20T19:48:16.814Z,10.30
2023-05-20T19:50:44.110Z,11.30
2023-05-20T19:53:12.027Z,10.57
2023-05-20T19:55:39.897Z,10.75
2023-05-20T19:58:07.592Z,10.65
2023-05-20T20:00:35.316Z,11.00
2023-05-20T20:03:03.710Z,11.45
2023-05-20T20:05:31.206Z,10.55
2023-05-20T20:07:58.581Z,11.23
2023-05-20T20:10:26.152Z,11.18
2023-05-20T20:12:53.717Z,10.43
2023-05-20T20:15:21.250Z,10.55
2023-05-20T20:17:52.378Z,10.43
2023-05-20T20:20:20.294Z,11.10
2023-05-20T20:22:47.837Z,11.75
2023-05-20T20:25:15.756Z,11.20
2023-05-20T20:27:44.165Z,11.30
2023-05-20T20:30:13.667Z,11.00
2023-05-20T20:32:42.216Z,11.70
2023-05-20T20:35:11.086Z,11.70
2023-05-20T20:37:38.925Z,12.23
2023-05-20T20:40:12.302Z,12.07
2023-05-20T20:42:42.656Z,12.20
2023-05-20T20:45:12.447Z,11.63
2023-05-20T20:47:41.127Z,12.98
2023-05-20T20:50:09.120Z,14.10
2023-05-20T20:52:36.709Z,14.18
2023-05-20T20:55:04.854Z,22.90
2023-05-20T20:57:35.382Z,22.80
2023-05-20T21:00:14.459Z,20.27
2023-05-20T21:02:42.314Z,18.92
2023-05-20T21:05:10.273Z,17.33
2023-05-20T21:07:44.847Z,19.30
2023-05-20T21:10:13.127Z,17.65
2023-05-20T21:12:40.699Z,18.63
2023-05-20T21:15:08.695Z,17.15
2023-05-20T21:17:36.000Z,13.98
2023-05-20T21:20:04.435Z,14.60
2023-05-20T21:22:31.796Z,17.05
2023-05-20T21:24:58.971Z,16.20
2023-05-20T21:27:26.765Z,16.30
2023-05-20T21:29:54.462Z,18.08
2023-05-20T21:32:21.729Z,18.00
2023-05-20T21:34:49.241Z,16.65
2023-05-20T21:37:16.926Z,16.38
2023-05-20T21:39:44.752Z,15.65
2023-05-20T21:42:12.091Z,14.02
2023-05-20T21:44:39.291Z,15.00
2023-05-20T21:47:06.639Z,12.65
2023-05-20T21:49:34.176Z,14.15
2023-05-20T21:52:01.739Z,14.30
2023-05-20T21:54:29.110Z,14.07
2023-05-20T21:56:56.432Z,13.57
2023-05-20T21:59:23.718Z,13.77
2023-05-20T22:01:51.068Z,14.23
2023-05-20T22:04:19.036Z,14.68
2023-05-20T22:06:46.525Z,14.85
2023-05-20T22:09:13.756Z,17.58
2023-05-20T22:11:41.800Z,17.00
2023-05-20T22:14:09.216Z,15.80
2023-05-20T22:16:36.859Z,15.27
2023-05-20T22:19:04.443Z,15.65
2023-05-20T22:21:34.222Z,15.05
2023-05-20T22:24:07.078Z,14.70
2023-05-20T22:26:34.552Z,15.57
2023-05-20T22:29:01.829Z,14.35
2023-05-20T22:31:29.391Z,13.30
2023-05-20T22:33:56.960Z,14.38
2023-05-20T22:36:24.943Z,14.05
2023-05-20T22:38:52.132Z,16.25
2023-05-20T22:41:19.527Z,16.33
2023-05-20T22:43:46.971Z,16.90
2023-05-20T22:46:14.124Z,16.67
2023-05-20T22:48:41.902Z,16.60
2023-05-20T22:51:09.020Z,15.95
2023-05-20T22:53:36.484Z,16.58
2023-05-20T22:56:03.791Z,16.15
2023-05-20T22:58:39.482Z,16.33
2023-05-20T23:01:07.993Z,16.80
2023-05-20T23:03:35.488Z,16.60
2023-05-20T23:06:02.858Z,15.52
2023-05-20T23:08:30.340Z,14.68
2023-05-20T23:10:57.672Z,15.02
2023-05-20T23:13:25.118Z,16.10
2023-05-20T23:15:52.745Z,17.77
2023-05-20T23:18:19.961Z,16.75
2023-05-20T23:20:47.808Z,18.33
2023-05-20T23:23:15.064Z,17.70
2023-05-20T23:25:44.308Z,17.90
2023-05-20T23:28:13.089Z,17.45
2023-05-20T23:30:40.638Z,18.92
2023-05-20T23:33:08.083Z,17.80
2023-05-20T23:35:35.659Z,18.77
2023-05-20T23:38:03.027Z,18.50
2023-05-20T23:40:30.233Z,18.27
2023-05-20T23:42:57.456Z,18.23
2023-05-20T23:45:24.720Z,18.90
2023-05-20T23:47:51.988Z,17.35
2023-05-20T23:50:19.178Z,16.83
2023-05-20T23:52:46.507Z,16.75
2023-05-20T23:55:14.515Z,16.30
2023-05-20T23:57:42.064Z,16.38
